Terminal Aerodrome Forecast
Issued by NWS Duluth, MN

Home | Current Version | Previous Version | Text Only | Print | Product List | Glossary On
Versions: 1 2 3 4 5 6 7 8 9 10 11 12 13 14 15 16 17 18 19 20 21 22 23 24 25
063
FTUS43 KDLH 221120
TAFDLH
TAF
KDLH 221120Z 2212/2312 00000KT P6SM SKC
     FM221800 13005KT P6SM BKN110
     FM230700 15009KT P6SM OVC050=

USA.gov is the U.S. government's official web portal to all federal, state and local government web resources and services.